Airfield :







YOU CAN JOIN US ON...

 
LOGIN :

Register | Disclaimer

   EN    FR    IT 

 









Legend :    VFR   Marginal VFR   IFR   Intensive IFR   Very Intensive IFR
Visi :
Ceiling :
>= 8 km
>= 3000ft
5 to 8 km
1000 to 3000 ft
1500m to 5 km
500 to 1000 ft
800 to 1500m
200 to 500 ft
< 800m
< 200 ft
Symbols :   Thunderstorms  Fog  Heavy snow  Heavy precipitations  Wind > 20 kt






- Airport Elevation : 522 ft
- IATA code : YBG


CYBG - CFB Bagotville

CURRENT METAR :
  • 200100Z 30017G25KT 15SM DRSN BKN020 M19/M25 A3021 RMK SC5 SLP247

EXPIRED METARs :
  • 200000Z 31017G24KT 15SM DRSN FEW024 SCT040 M18/M24 A3018 RMK SC1SC3 VIS LWR SW SLP235
  • 192300Z 30012G18KT 12SM DRSN FEW024 SCT040 M16/M22 A3013 RMK CF1SC4 CUFRA TR VIS LWR SW SLP218

TAF TAF CYBG
Valid from the 20 at 00:00 until the 21 at 00:00 UTC


192330Z 2000/2024 29012G22KT P6SM FEW020 SCT040
TEMPO 2000/2002 5SM -SHSN BKN020 OVC040
FM200600 29012G22KT P6SM FEW030 SCT050
BECMG 2008/2010 29010G20KT
BECMG 2022/2024 VRB03KT RMK NXT FCST BY 200600Z



MET'MAP, your aeronautical weather chart ! - Copyright ORBIFLY December 2007 - Disclaimer

ORBIFLY MET'MAP TEAM :

Programming & Development : Alexandra Zaïnal
Concept & original design : Baudouin d'Aumeries
Assistance for programming : Marc-Olivier Méhu
Technical & hardware support : Manuel Goepfert

Contact : metmap@orbifly.com




SOURCES & CREDITS :

   NOAA